Time;durP1;ratioP1;P1;durP2;ratioP2;P2;SDS_P1;SDS_P2;PMS_P1;PMS_P2;Temp;Humidity;BMP_temperature;BMP_pressure;BME280_temperature;BME280_humidity;BME280_pressure;Samples;Min_cycle;Max_cycle;Signal;HPM_P1;HPM_P2
2022/07/18 00:02:28;;;;;;;5.07;2.40;;;;;;;;;;9996869;28;20068;-68
2022/07/18 00:07:24;;;;;;;4.95;2.17;;;;;;;;;;10018676;28;20177;-68
2022/07/18 00:12:20;;;;;;;6.43;2.35;;;;;;;;;;10049838;28;20126;-68
2022/07/18 00:17:16;;;;;;;6.35;2.60;;;;;;;;;;10021251;28;20079;-68
2022/07/18 00:22:13;;;;;;;5.00;2.40;;;;;;;;;;10034717;28;20056;-68
2022/07/18 00:27:09;;;;;;;7.57;3.13;;;;;;;;;;10024665;28;20078;-68
2022/07/18 00:32:06;;;;;;;5.90;2.38;;;;;;;;;;10029840;28;20099;-68
2022/07/18 00:37:03;;;;;;;5.70;2.60;;;;;;;;;;10022989;28;20039;-68
2022/07/18 00:41:59;;;;;;;7.45;3.17;;;;;;;;;;10017814;28;20552;-68
2022/07/18 00:46:57;;;;;;;5.68;2.70;;;;;;;;;;10021808;28;20083;-68
2022/07/18 00:51:53;;;;;;;5.57;2.33;;;;;;;;;;10010776;28;20539;-68
2022/07/18 00:56:50;;;;;;;5.50;2.50;;;;;;;;;;10020614;28;20044;-68
2022/07/18 01:01:47;;;;;;;7.70;2.33;;;;;;;;;;10006778;28;20508;-68
2022/07/18 01:06:44;;;;;;;6.60;3.05;;;;;;;;;;11084038;23;20119;-67
2022/07/18 01:11:41;;;;;;;6.05;2.20;;;;;;;;;;10104061;28;20055;-67
2022/07/18 01:16:38;;;;;;;5.35;2.28;;;;;;;;;;10089902;28;20043;-67
2022/07/18 01:21:36;;;;;;;6.30;3.20;;;;;;;;;;10080050;28;20079;-67
2022/07/18 01:26:33;;;;;;;5.38;2.83;;;;;;;;;;10053516;28;20075;-67
2022/07/18 01:31:33;;;;;;;5.22;2.22;;;;;;;;;;10040842;28;20585;-67
2022/07/18 01:36:29;;;;;;;8.90;2.55;;;;;;;;;;10066579;28;20737;-67
2022/07/18 01:41:26;;;;;;;7.80;2.83;;;;;;;;;;10079424;28;20055;-67
2022/07/18 01:46:22;;;;;;;4.72;2.30;;;;;;;;;;10068486;28;20126;-67
2022/07/18 01:51:19;;;;;;;6.38;2.90;;;;;;;;;;10077946;28;20059;-67
2022/07/18 01:56:15;;;;;;;4.85;2.03;;;;;;;;;;10066350;28;20075;-68
2022/07/18 02:01:11;;;;;;;9.73;2.90;;;;;;;;;;10079247;28;20130;-68
2022/07/18 02:06:07;;;;;;;5.82;2.15;;;;;;;;;;10065474;28;20074;-67
2022/07/18 02:11:04;;;;;;;8.10;2.65;;;;;;;;;;10077573;28;20070;-67
2022/07/18 02:16:00;;;;;;;4.60;2.22;;;;;;;;;;10077535;28;20055;-67
2022/07/18 02:20:57;;;;;;;5.60;2.58;;;;;;;;;;10052824;28;20114;-67
2022/07/18 02:25:54;;;;;;;6.97;2.30;;;;;;;;;;10060528;28;20075;-67
2022/07/18 02:30:50;;;;;;;5.60;2.40;;;;;;;;;;10051419;28;20048;-67
2022/07/18 02:35:47;;;;;;;7.35;2.92;;;;;;;;;;10060527;28;20081;-67
2022/07/18 02:40:43;;;;;;;6.32;2.55;;;;;;;;;;10046026;28;20530;-68
2022/07/18 02:45:39;;;;;;;5.07;2.10;;;;;;;;;;10058562;28;20250;-67
2022/07/18 02:50:38;;;;;;;6.32;2.92;;;;;;;;;;10042471;28;20525;-67
2022/07/18 02:55:34;;;;;;;6.45;3.15;;;;;;;;;;10043488;28;20454;-67
2022/07/18 03:00:31;;;;;;;5.00;2.20;;;;;;;;;;10037763;28;20453;-67
2022/07/18 03:05:27;;;;;;;5.65;2.38;;;;;;;;;;10056714;28;20106;-67
2022/07/18 03:10:23;;;;;;;5.82;2.65;;;;;;;;;;10075838;28;20067;-67
2022/07/18 03:15:20;;;;;;;5.90;2.40;;;;;;;;;;10063819;28;20051;-67
2022/07/18 03:20:16;;;;;;;6.78;2.25;;;;;;;;;;10037015;28;20079;-67
2022/07/18 03:25:12;;;;;;;6.15;2.55;;;;;;;;;;10068135;28;20078;-67
2022/07/18 03:30:12;;;;;;;6.53;3.00;;;;;;;;;;10075496;28;20062;-67
2022/07/18 03:35:08;;;;;;;6.55;2.90;;;;;;;;;;10059314;28;20559;-67
2022/07/18 03:40:05;;;;;;;6.93;2.88;;;;;;;;;;10065951;28;20580;-67
2022/07/18 03:45:01;;;;;;;6.05;2.92;;;;;;;;;;10052178;29;20090;-67
2022/07/18 03:49:57;;;;;;;7.65;2.80;;;;;;;;;;10054135;28;20060;-67
2022/07/18 03:54:54;;;;;;;7.65;2.95;;;;;;;;;;10050275;28;20078;-67
2022/07/18 03:59:50;;;;;;;7.40;2.85;;;;;;;;;;10074102;28;20062;-67
2022/07/18 04:04:47;;;;;;;10.82;3.42;;;;;;;;;;10071149;28;20480;-67
2022/07/18 04:09:43;;;;;;;5.10;2.78;;;;;;;;;;10035144;28;20566;-67
2022/07/18 04:14:39;;;;;;;6.35;3.35;;;;;;;;;;10045626;28;20081;-67
2022/07/18 04:19:35;;;;;;;6.97;3.20;;;;;;;;;;10035079;28;20132;-67
2022/07/18 04:24:32;;;;;;;7.82;2.90;;;;;;;;;;10044463;28;20512;-67
2022/07/18 04:29:31;;;;;;;6.57;3.17;;;;;;;;;;10034620;28;20674;-67
2022/07/18 04:34:27;;;;;;;9.07;3.15;;;;;;;;;;10036721;28;20095;-67
2022/07/18 04:39:23;;;;;;;8.57;3.88;;;;;;;;;;10034726;28;20083;-67
2022/07/18 04:44:20;;;;;;;8.48;3.42;;;;;;;;;;10045621;28;20147;-67
2022/07/18 04:49:16;;;;;;;5.82;3.10;;;;;;;;;;10072369;28;20044;-68
2022/07/18 04:54:12;;;;;;;8.65;3.40;;;;;;;;;;10044169;28;20079;-68
2022/07/18 04:59:09;;;;;;;9.38;3.70;;;;;;;;;;10070041;28;20048;-68
2022/07/18 05:04:05;;;;;;;8.82;3.13;;;;;;;;;;10043162;28;20126;-68
2022/07/18 05:09:01;;;;;;;8.25;3.50;;;;;;;;;;10057346;28;20051;-68
2022/07/18 05:13:58;;;;;;;6.68;3.90;;;;;;;;;;10048780;28;20134;-67
2022/07/18 05:18:54;;;;;;;5.22;3.10;;;;;;;;;;10044023;28;20088;-67
2022/07/18 05:23:50;;;;;;;6.38;2.83;;;;;;;;;;10047917;28;20062;-68
2022/07/18 05:28:46;;;;;;;7.65;3.58;;;;;;;;;;10079413;28;20114;-67
2022/07/18 05:33:43;;;;;;;5.93;3.35;;;;;;;;;;10068492;28;20074;-67
2022/07/18 05:38:39;;;;;;;6.45;3.05;;;;;;;;;;10079095;28;20134;-67
2022/07/18 05:43:35;;;;;;;10.45;3.67;;;;;;;;;;10061251;28;20039;-67
2022/07/18 05:48:32;;;;;;;5.90;3.50;;;;;;;;;;10078591;28;20797;-67
2022/07/18 05:53:28;;;;;;;5.75;3.10;;;;;;;;;;10050233;28;20122;-67
2022/07/18 05:58:24;;;;;;;8.95;3.10;;;;;;;;;;10078351;28;20531;-67
2022/07/18 06:03:20;;;;;;;7.10;3.17;;;;;;;;;;10043052;28;20644;-67
2022/07/18 06:08:17;;;;;;;6.40;3.00;;;;;;;;;;10076947;28;20106;-67
2022/07/18 06:13:13;;;;;;;9.38;4.20;;;;;;;;;;10040543;28;20417;-67
2022/07/18 06:18:10;;;;;;;7.82;3.40;;;;;;;;;;10066756;28;20047;-67
2022/07/18 06:23:06;;;;;;;9.48;3.75;;;;;;;;;;10039160;28;20445;-67
2022/07/18 06:28:02;;;;;;;8.98;3.47;;;;;;;;;;10060555;28;20082;-67
2022/07/18 06:32:59;;;;;;;6.47;3.10;;;;;;;;;;10038893;28;20407;-67
2022/07/18 06:37:55;;;;;;;9.00;3.60;;;;;;;;;;10053654;28;20561;-67
2022/07/18 06:42:52;;;;;;;10.40;3.50;;;;;;;;;;10037924;28;20564;-67
2022/07/18 06:47:48;;;;;;;6.43;2.97;;;;;;;;;;10048807;28;20087;-67
2022/07/18 06:52:44;;;;;;;12.50;4.03;;;;;;;;;;10038100;28;20497;-67
2022/07/18 06:57:41;;;;;;;6.35;3.55;;;;;;;;;;10048598;28;20063;-68
2022/07/18 07:02:41;;;;;;;10.23;4.45;;;;;;;;;;10038402;28;20107;-67
2022/07/18 07:07:38;;;;;;;7.95;3.80;;;;;;;;;;10073111;28;20142;-67
2022/07/18 07:12:43;;;;;;;7.65;3.70;;;;;;;;;;10068448;28;20425;-67
2022/07/18 07:17:40;;;;;;;9.68;4.50;;;;;;;;;;10073255;28;20528;-67
2022/07/18 07:22:40;;;;;;;8.52;3.28;;;;;;;;;;10054094;28;20051;-67
2022/07/18 07:27:36;;;;;;;6.68;3.60;;;;;;;;;;10072637;28;20078;-67
2022/07/18 07:32:36;;;;;;;8.98;3.78;;;;;;;;;;10039969;28;20051;-67
2022/07/18 07:37:33;;;;;;;7.40;3.63;;;;;;;;;;10071908;28;20078;-67
2022/07/18 07:42:30;;;;;;;10.10;4.15;;;;;;;;;;10038532;28;20134;-67
2022/07/18 07:47:28;;;;;;;8.25;4.50;;;;;;;;;;10065237;28;20055;-67
2022/07/18 07:52:25;;;;;;;12.00;4.53;;;;;;;;;;10036060;28;20127;-67
2022/07/18 07:57:21;;;;;;;11.57;3.97;;;;;;;;;;10061664;28;20048;-68
2022/07/18 08:02:18;;;;;;;7.15;4.18;;;;;;;;;;10035949;28;20044;-67
2022/07/18 08:07:14;;;;;;;8.77;4.28;;;;;;;;;;10055941;28;20052;-67
2022/07/18 08:12:10;;;;;;;7.38;3.70;;;;;;;;;;10036113;28;20086;-67
2022/07/18 08:17:07;;;;;;;7.22;4.10;;;;;;;;;;10047394;28;20047;-67
2022/07/18 08:22:03;;;;;;;14.00;4.80;;;;;;;;;;10035730;28;20047;-68
2022/07/18 08:27:00;;;;;;;8.52;4.00;;;;;;;;;;10066107;28;20082;-67
2022/07/18 08:31:57;;;;;;;8.57;4.72;;;;;;;;;;10069526;28;20163;-67
2022/07/18 08:36:54;;;;;;;7.50;4.40;;;;;;;;;;10065104;28;20055;-67
2022/07/18 08:41:51;;;;;;;7.50;4.25;;;;;;;;;;10065877;28;20095;-68
2022/07/18 08:46:50;;;;;;;8.13;3.80;;;;;;;;;;10071574;28;20122;-67
2022/07/18 08:51:47;;;;;;;7.57;4.00;;;;;;;;;;10066511;28;20135;-67
2022/07/18 08:56:43;;;;;;;8.23;4.00;;;;;;;;;;10071339;28;20070;-68
2022/07/18 09:01:39;;;;;;;9.05;4.07;;;;;;;;;;10062505;28;20103;-68
2022/07/18 09:07:03;;;;;;;6.53;3.28;;;;;;;;;;10040628;28;20051;-67
2022/07/18 09:12:02;;;;;;;8.27;4.05;;;;;;;;;;10040420;28;20071;-67
2022/07/18 09:17:00;;;;;;;5.93;3.35;;;;;;;;;;10041097;28;20472;-67
2022/07/18 09:22:15;;;;;;;6.85;3.33;;;;;;;;;;10069814;28;20071;-68
2022/07/18 09:27:28;;;;;;;9.40;3.40;;;;;;;;;;10066452;28;20056;-68
2022/07/18 09:32:24;;;;;;;8.48;3.97;;;;;;;;;;10072781;28;20497;-68
2022/07/18 09:37:21;;;;;;;6.93;3.65;;;;;;;;;;10055479;28;20438;-67
2022/07/18 09:42:18;;;;;;;6.10;3.38;;;;;;;;;;10071538;28;20509;-67
2022/07/18 09:47:14;;;;;;;5.47;3.10;;;;;;;;;;10039349;28;20043;-67
2022/07/18 09:52:10;;;;;;;7.88;3.50;;;;;;;;;;10070347;28;20047;-68
2022/07/18 09:57:07;;;;;;;6.10;2.83;;;;;;;;;;10038794;28;20048;-67
2022/07/18 10:02:04;;;;;;;7.63;3.70;;;;;;;;;;10060806;28;20047;-67
2022/07/18 10:07:01;;;;;;;7.45;3.72;;;;;;;;;;10038525;28;20461;-67
2022/07/18 10:11:57;;;;;;;9.73;4.10;;;;;;;;;;10068373;28;20082;-65
2022/07/18 10:16:59;;;;;;;7.32;3.38;;;;;;;;;;10072931;28;20051;-65
2022/07/18 10:21:56;;;;;;;8.45;4.00;;;;;;;;;;10066737;28;20075;-65
2022/07/18 10:27:12;;;;;;;7.05;3.33;;;;;;;;;;10060603;28;20513;-66
2022/07/18 10:32:08;;;;;;;7.20;3.35;;;;;;;;;;10068845;28;20046;-65
2022/07/18 10:37:06;;;;;;;7.78;2.85;;;;;;;;;;10048144;28;20508;-66
2022/07/18 10:42:02;;;;;;;7.15;3.50;;;;;;;;;;10067173;28;20138;-66
2022/07/18 10:47:05;;;;;;;5.45;2.90;;;;;;;;;;10076164;28;20047;-66
2022/07/18 10:52:02;;;;;;;9.07;3.38;;;;;;;;;;10076043;28;20059;-66
2022/07/18 10:56:58;;;;;;;7.88;4.15;;;;;;;;;;10076268;28;20134;-66
2022/07/18 11:01:55;;;;;;;9.75;3.65;;;;;;;;;;10052146;28;20135;-65
2022/07/18 11:06:53;;;;;;;6.57;3.10;;;;;;;;;;10036894;28;20256;-65
2022/07/18 11:12:08;;;;;;;8.27;3.83;;;;;;;;;;10065407;28;20051;-66
2022/07/18 11:17:04;;;;;;;7.75;3.42;;;;;;;;;;10068662;28;20044;-67
2022/07/18 11:22:01;;;;;;;8.25;4.15;;;;;;;;;;10071280;28;20047;-66
2022/07/18 11:26:57;;;;;;;6.25;3.30;;;;;;;;;;10063917;28;20127;-66
2022/07/18 11:31:54;;;;;;;7.18;3.42;;;;;;;;;;10064662;28;20074;-66
2022/07/18 11:36:51;;;;;;;8.70;3.72;;;;;;;;;;10049584;28;20142;-65
2022/07/18 11:41:47;;;;;;;6.25;3.58;;;;;;;;;;10062454;28;20134;-66
2022/07/18 11:46:44;;;;;;;7.20;3.65;;;;;;;;;;10035986;28;20123;-66
2022/07/18 11:51:41;;;;;;;8.52;3.13;;;;;;;;;;10055740;28;20091;-66
2022/07/18 11:56:48;;;;;;;6.30;3.10;;;;;;;;;;10036055;28;20088;-66
2022/07/18 12:01:45;;;;;;;6.20;3.40;;;;;;;;;;10051509;28;20403;-66
2022/07/18 12:06:41;;;;;;;4.90;2.78;;;;;;;;;;10035045;28;20071;-66
2022/07/18 12:11:38;;;;;;;6.47;3.22;;;;;;;;;;10048982;28;20051;-65
2022/07/18 12:16:44;;;;;;;7.07;3.00;;;;;;;;;;10035190;28;20134;-66
2022/07/18 12:21:59;;;;;;;6.50;3.40;;;;;;;;;;10070412;28;20138;-66
2022/07/18 12:27:12;;;;;;;5.25;3.13;;;;;;;;;;10076966;28;20047;-66
2022/07/18 12:32:15;;;;;;;11.60;3.55;;;;;;;;;;10073839;28;20509;-66
2022/07/18 12:37:11;;;;;;;5.72;2.92;;;;;;;;;;10069220;28;20078;-66
2022/07/18 12:42:07;;;;;;;8.50;3.55;;;;;;;;;;10073430;28;20082;-66
2022/07/18 12:47:04;;;;;;;7.13;3.33;;;;;;;;;;10080265;28;20063;-66
2022/07/18 12:52:00;;;;;;;5.00;2.78;;;;;;;;;;10081502;28;20083;-66
2022/07/18 12:56:56;;;;;;;5.53;2.75;;;;;;;;;;10058402;28;20063;-65
2022/07/18 13:01:53;;;;;;;6.30;2.97;;;;;;;;;;10070203;28;20077;-66
2022/07/18 13:06:49;;;;;;;6.13;3.00;;;;;;;;;;10041702;28;20276;-66
2022/07/18 13:11:47;;;;;;;5.75;2.30;;;;;;;;;;10069049;28;20098;-66
2022/07/18 13:16:47;;;;;;;6.93;3.05;;;;;;;;;;10064766;28;20044;-66
2022/07/18 13:21:43;;;;;;;5.65;2.90;;;;;;;;;;10068265;28;20098;-66
2022/07/18 13:26:40;;;;;;;4.97;2.53;;;;;;;;;;10057588;28;20051;-66
2022/07/18 13:31:37;;;;;;;7.15;2.35;;;;;;;;;;10064347;28;20051;-66
2022/07/18 13:36:33;;;;;;;5.20;2.30;;;;;;;;;;10040413;28;20719;-66
2022/07/18 13:41:29;;;;;;;4.00;1.88;;;;;;;;;;10062913;28;20572;-66
2022/07/18 13:46:26;;;;;;;7.25;2.40;;;;;;;;;;10040281;28;20683;-66
2022/07/18 13:51:23;;;;;;;5.18;2.15;;;;;;;;;;10058126;28;20055;-66
2022/07/18 13:56:19;;;;;;;4.28;2.28;;;;;;;;;;10039423;28;20094;-66
2022/07/18 14:01:15;;;;;;;4.93;2.17;;;;;;;;;;10062816;28;20055;-66
2022/07/18 14:06:12;;;;;;;4.03;1.98;;;;;;;;;;10078344;28;20062;-66
2022/07/18 14:11:08;;;;;;;5.63;2.72;;;;;;;;;;10063300;28;20079;-65
2022/07/18 14:16:04;;;;;;;5.18;2.80;;;;;;;;;;10039352;28;20076;-66
2022/07/18 14:21:01;;;;;;;5.55;2.97;;;;;;;;;;10059903;28;20428;-66
2022/07/18 14:25:57;;;;;;;5.68;2.17;;;;;;;;;;10077155;28;20102;-66
2022/07/18 14:30:53;;;;;;;4.82;2.78;;;;;;;;;;10076786;28;20117;-65
2022/07/18 14:35:50;;;;;;;5.03;2.30;;;;;;;;;;10076576;28;20073;-65
2022/07/18 14:40:46;;;;;;;4.63;2.22;;;;;;;;;;10077025;28;20390;-65
2022/07/18 14:45:42;;;;;;;4.25;2.30;;;;;;;;;;10048365;28;20071;-65
2022/07/18 14:50:58;;;;;;;4.75;2.65;;;;;;;;;;10053399;28;20418;-65
2022/07/18 14:55:54;;;;;;;5.15;2.90;;;;;;;;;;10037920;28;20122;-65
2022/07/18 15:00:51;;;;;;;5.40;2.50;;;;;;;;;;10047176;28;20052;-65
2022/07/18 15:05:47;;;;;;;4.88;2.33;;;;;;;;;;10037684;28;20043;-65
2022/07/18 15:10:43;;;;;;;6.40;2.80;;;;;;;;;;10056325;28;20138;-65
2022/07/18 15:15:40;;;;;;;4.85;2.63;;;;;;;;;;10076092;28;20138;-65
2022/07/18 15:20:36;;;;;;;8.63;3.03;;;;;;;;;;10057291;28;20098;-65
2022/07/18 15:25:40;;;;;;;6.63;3.95;;;;;;;;;;10059304;28;20070;-65
2022/07/18 15:30:36;;;;;;;6.03;2.55;;;;;;;;;;10054905;28;20047;-65
2022/07/18 15:35:42;;;;;;;5.78;2.60;;;;;;;;;;10045547;28;20044;-65
2022/07/18 15:40:39;;;;;;;5.13;2.60;;;;;;;;;;10048207;28;20143;-66
2022/07/18 15:45:35;;;;;;;5.68;2.78;;;;;;;;;;10035750;28;20505;-65
2022/07/18 15:50:31;;;;;;;5.53;2.70;;;;;;;;;;10068050;28;20051;-65
2022/07/18 15:55:29;;;;;;;4.90;2.67;;;;;;;;;;10074488;28;20067;-65
2022/07/18 16:00:26;;;;;;;5.20;2.15;;;;;;;;;;10073968;28;20051;-66
2022/07/18 16:05:23;;;;;;;6.55;2.97;;;;;;;;;;10073257;28;20493;-66
2022/07/18 16:10:19;;;;;;;4.65;2.70;;;;;;;;;;10050357;28;20517;-66
2022/07/18 16:15:15;;;;;;;6.13;4.25;;;;;;;;;;10064938;28;20549;-65
2022/07/18 16:20:14;;;;;;;5.60;3.33;;;;;;;;;;10049710;28;20047;-66
2022/07/18 16:25:10;;;;;;;6.28;3.35;;;;;;;;;;10055751;28;20044;-65
2022/07/18 16:30:07;;;;;;;6.70;3.53;;;;;;;;;;10049237;28;20098;-65
2022/07/18 16:35:04;;;;;;;6.75;3.55;;;;;;;;;;10040360;28;20517;-66
2022/07/18 16:40:00;;;;;;;6.15;3.53;;;;;;;;;;10048270;29;20642;-65
2022/07/18 16:44:57;;;;;;;5.35;3.38;;;;;;;;;;10036854;28;20119;-65
2022/07/18 16:49:53;;;;;;;5.95;3.50;;;;;;;;;;10046751;28;20772;-65
2022/07/18 16:54:51;;;;;;;7.65;3.55;;;;;;;;;;10035708;28;20425;-65
2022/07/18 16:59:47;;;;;;;9.70;4.15;;;;;;;;;;10043391;28;20110;-65
2022/07/18 17:04:53;;;;;;;5.75;3.00;;;;;;;;;;10037494;28;20046;-65
2022/07/18 17:09:50;;;;;;;5.55;3.25;;;;;;;;;;10053372;28;20051;-65
2022/07/18 17:14:48;;;;;;;5.47;3.10;;;;;;;;;;10079947;28;20126;-66
2022/07/18 17:19:45;;;;;;;9.65;4.45;;;;;;;;;;10069663;28;20047;-65
2022/07/18 17:24:41;;;;;;;7.88;3.72;;;;;;;;;;10078694;28;20560;-65
2022/07/18 17:29:38;;;;;;;7.13;4.50;;;;;;;;;;10062401;28;20039;-65
2022/07/18 17:34:36;;;;;;;7.63;3.95;;;;;;;;;;10079462;28;20063;-65
2022/07/18 17:39:32;;;;;;;7.15;4.10;;;;;;;;;;10054895;28;20043;-65
2022/07/18 17:44:29;;;;;;;7.95;5.32;;;;;;;;;;10073084;28;20128;-65
2022/07/18 17:49:25;;;;;;;9.30;5.03;;;;;;;;;;10047788;28;20083;-65
2022/07/18 17:54:22;;;;;;;9.88;4.55;;;;;;;;;;10058590;28;20052;-66
2022/07/18 17:59:18;;;;;;;10.77;5.30;;;;;;;;;;10046180;28;20635;-66
2022/07/18 18:04:14;;;;;;;7.25;4.55;;;;;;;;;;10058165;28;20052;-64
2022/07/18 18:09:11;;;;;;;9.77;4.15;;;;;;;;;;10045470;28;20601;-65
2022/07/18 18:14:07;;;;;;;8.75;4.20;;;;;;;;;;10048642;28;20067;-65
2022/07/18 18:19:03;;;;;;;6.85;4.00;;;;;;;;;;10043176;28;20082;-65
2022/07/18 18:23:59;;;;;;;6.63;3.65;;;;;;;;;;10048492;28;20458;-66
2022/07/18 18:28:56;;;;;;;7.80;4.25;;;;;;;;;;10037640;28;20510;-66
2022/07/18 18:33:52;;;;;;;6.82;3.65;;;;;;;;;;10039209;28;20074;-65
2022/07/18 18:38:49;;;;;;;8.35;4.25;;;;;;;;;;10041590;28;20133;-65
2022/07/18 18:43:45;;;;;;;7.75;4.47;;;;;;;;;;10043435;28;20090;-65
2022/07/18 18:48:42;;;;;;;7.32;4.32;;;;;;;;;;10038066;28;20517;-65
2022/07/18 18:53:38;;;;;;;8.52;4.38;;;;;;;;;;10037746;28;20052;-65
2022/07/18 18:58:35;;;;;;;6.28;3.78;;;;;;;;;;10039425;28;20059;-65
2022/07/18 19:03:31;;;;;;;6.78;4.15;;;;;;;;;;10076460;28;20083;-65
2022/07/18 19:08:27;;;;;;;8.35;4.65;;;;;;;;;;10052647;28;20128;-64
2022/07/18 19:13:24;;;;;;;7.80;4.55;;;;;;;;;;10075976;28;20055;-65
2022/07/18 19:18:20;;;;;;;7.65;4.25;;;;;;;;;;10044066;28;20090;-65
2022/07/18 19:23:17;;;;;;;7.68;4.40;;;;;;;;;;10075697;28;20110;-66
2022/07/18 19:28:13;;;;;;;7.82;4.78;;;;;;;;;;10041053;28;20102;-66
2022/07/18 19:33:10;;;;;;;8.63;4.45;;;;;;;;;;10064906;28;20465;-65
2022/07/18 19:38:06;;;;;;;9.07;4.88;;;;;;;;;;10035432;28;20581;-66
2022/07/18 19:43:03;;;;;;;8.27;5.13;;;;;;;;;;10056561;28;20134;-66
2022/07/18 19:48:00;;;;;;;9.23;4.75;;;;;;;;;;10035343;28;20056;-66
2022/07/18 19:52:57;;;;;;;10.35;5.35;;;;;;;;;;10041316;28;20130;-65
2022/07/18 19:57:53;;;;;;;10.75;5.50;;;;;;;;;;10035013;28;20107;-65
2022/07/18 20:02:49;;;;;;;8.30;5.18;;;;;;;;;;10071302;28;20134;-66
2022/07/18 20:07:46;;;;;;;9.93;5.18;;;;;;;;;;10053107;28;20043;-66
2022/07/18 20:12:42;;;;;;;10.25;5.78;;;;;;;;;;10070188;28;20047;-66
2022/07/18 20:17:39;;;;;;;13.10;6.05;;;;;;;;;;10052445;28;20051;-65
2022/07/18 20:22:35;;;;;;;10.20;5.97;;;;;;;;;;10069005;28;20059;-66
2022/07/18 20:27:31;;;;;;;11.50;6.05;;;;;;;;;;10073396;28;20480;-66
2022/07/18 20:32:28;;;;;;;9.75;6.20;;;;;;;;;;10074466;28;20058;-66
2022/07/18 20:37:24;;;;;;;9.68;6.20;;;;;;;;;;10037163;28;20083;-66
2022/07/18 20:42:20;;;;;;;11.50;6.75;;;;;;;;;;10063803;28;20130;-66
2022/07/18 20:47:17;;;;;;;10.20;5.93;;;;;;;;;;10041146;28;20122;-66
2022/07/18 20:52:13;;;;;;;11.75;6.47;;;;;;;;;;10052161;28;20131;-66
2022/07/18 20:57:10;;;;;;;11.30;6.82;;;;;;;;;;10041937;28;20099;-66
2022/07/18 21:02:07;;;;;;;10.95;6.53;;;;;;;;;;10072013;28;20078;-66
2022/07/18 21:07:06;;;;;;;10.60;6.28;;;;;;;;;;10074830;28;20056;-65
2022/07/18 21:12:02;;;;;;;13.38;6.70;;;;;;;;;;10071390;28;20051;-65
2022/07/18 21:16:59;;;;;;;11.18;6.63;;;;;;;;;;10060567;28;20048;-66
2022/07/18 21:21:55;;;;;;;9.98;6.68;;;;;;;;;;10069349;28;20053;-66
2022/07/18 21:26:52;;;;;;;10.43;5.72;;;;;;;;;;10056990;28;20695;-65
2022/07/18 21:31:48;;;;;;;12.88;6.88;;;;;;;;;;10068412;28;20418;-66
2022/07/18 21:36:44;;;;;;;12.40;7.22;;;;;;;;;;10039867;28;20536;-66
2022/07/18 21:41:41;;;;;;;12.73;7.60;;;;;;;;;;10054889;28;20048;-66
2022/07/18 21:46:37;;;;;;;12.68;7.00;;;;;;;;;;10039679;28;20050;-66
2022/07/18 21:51:34;;;;;;;9.75;6.18;;;;;;;;;;10052037;28;20441;-66
2022/07/18 21:56:31;;;;;;;12.88;6.85;;;;;;;;;;10039891;28;20663;-66
2022/07/18 22:01:27;;;;;;;12.05;6.72;;;;;;;;;;10050608;28;20103;-66
2022/07/18 22:06:23;;;;;;;13.52;7.25;;;;;;;;;;10039029;28;20035;-65
2022/07/18 22:11:26;;;;;;;13.82;6.70;;;;;;;;;;10062926;28;20493;-66
2022/07/18 22:16:22;;;;;;;12.63;7.80;;;;;;;;;;10078301;28;20509;-66
2022/07/18 22:21:19;;;;;;;13.55;7.43;;;;;;;;;;10069592;28;20102;-66
2022/07/18 22:26:17;;;;;;;11.85;7.57;;;;;;;;;;10077827;28;20070;-66
2022/07/18 22:31:13;;;;;;;12.23;6.70;;;;;;;;;;10067830;28;20070;-66
2022/07/18 22:36:10;;;;;;;11.20;6.70;;;;;;;;;;10067228;28;20048;-66
2022/07/18 22:41:06;;;;;;;12.07;7.50;;;;;;;;;;10060011;28;20043;-66
2022/07/18 22:46:03;;;;;;;10.68;6.93;;;;;;;;;;10076711;28;20043;-66
2022/07/18 22:50:59;;;;;;;13.52;8.30;;;;;;;;;;10076650;28;20044;-65
2022/07/18 22:55:55;;;;;;;9.77;6.68;;;;;;;;;;10044543;28;20083;-66
2022/07/18 23:00:52;;;;;;;10.90;7.43;;;;;;;;;;10057715;28;20044;-65
2022/07/18 23:05:48;;;;;;;14.75;8.07;;;;;;;;;;10038680;28;20051;-65
2022/07/18 23:10:50;;;;;;;11.43;7.80;;;;;;;;;;10056697;28;20509;-65
2022/07/18 23:15:46;;;;;;;11.82;7.57;;;;;;;;;;10037903;28;20071;-66
2022/07/18 23:20:42;;;;;;;13.30;7.70;;;;;;;;;;10052965;28;20548;-65
2022/07/18 23:25:39;;;;;;;14.15;7.72;;;;;;;;;;10037014;28;20506;-66
2022/07/18 23:30:35;;;;;;;12.77;7.10;;;;;;;;;;10055438;28;20497;-66
2022/07/18 23:35:32;;;;;;;13.88;8.45;;;;;;;;;;10075381;28;20089;-66
2022/07/18 23:40:28;;;;;;;11.43;7.15;;;;;;;;;;10062610;28;20127;-65
2022/07/18 23:45:25;;;;;;;12.82;7.50;;;;;;;;;;10070993;28;20533;-65
2022/07/18 23:50:21;;;;;;;14.02;7.55;;;;;;;;;;10052174;28;21186;-66
2022/07/18 23:55:17;;;;;;;12.60;7.60;;;;;;;;;;10060409;28;20127;-66
